Archival Weather

Sydney Intl

Sydney, Australia (YSSY)

Report from: Sunday, March 19, 2023 8:21 AM AEDT
Current time: Monday, June 17, 2024 9:39 PM AEST

Current weather – Weather history – Daily summaries
Weather forecast

Temperature22.0°C (71.6°F)
Dew point21.0°C (69.8°F)
Winds 8 kts (4.1 m/s, 9.2 mph) North-Northwest (330°)
Visibility2952.8 ft. (900 m)
Altimeter30.03 in.Hg (1017 mB)
Relative humidity94 %
Density altitude1,025 ft. (312 m)
Remarks Special weather observation
Flight conditions Low Instrument Meteorological Conditions
Raw dataSPAU31 KWBC 182149 SPECI YSSY 182121Z 33008KT 0900 FG 22/21 Q1017
An error has occurred. This application may no longer respond until reloaded. Reload 🗙